CST,Max TemperatureF,Mean TemperatureF,Min TemperatureF,Max Dew PointF,MeanDew PointF,Min DewpointF,Max Humidity, Mean Humidity, Min Humidity, Max Sea Level PressureIn, Mean Sea Level PressureIn, Min Sea Level PressureIn, Max VisibilityMiles, Mean VisibilityMiles, Min VisibilityMiles, Max Wind SpeedMPH, Mean Wind SpeedMPH, Max Gust SpeedMPH,PrecipitationIn, CloudCover, Events, WindDirDegrees
2014-1-1,59,53,46,54,49,38,93,79,65,30.30,30.14,30.04,10,8,2,10,5,12,0.15,8,Rain,86
2014-1-2,57,48,39,55,40,24,93,63,32,30.43,30.18,30.04,10,7,0,28,14,36,0.01,3,Fog-Rain,331
2014-1-3,51,41,31,31,26,22,76,55,34,30.48,30.38,30.25,10,10,10,15,6,18,0.00,0,,71
2014-1-4,65,50,34,55,47,31,100,82,64,30.21,30.06,29.92,10,10,7,18,10,24,0.00,5,,120
2014-1-5,68,51,34,64,45,20,90,70,49,30.33,30.01,29.86,10,8,2,30,16,40,0.24,6,Rain,281
2014-1-6,38,32,26,20,12,6,69,48,27,30.68,30.58,30.37,10,10,10,25,15,35,0.00,0,,353
2014-1-7,42,33,23,29,14,5,64,45,25,30.68,30.58,30.45,10,10,7,14,7,17,0.00,2,,83
2014-1-8,51,45,38,44,38,28,86,75,64,30.43,30.31,30.23,10,10,10,21,12,25,T,8,,96
2014-1-9,69,58,47,56,51,43,100,84,67,30.24,30.17,30.12,10,7,1,18,12,23,0.00,7,,111
2014-1-10,70,63,55,65,59,53,100,87,73,30.11,29.95,29.83,10,4,0,20,11,28,0.32,8,Fog-Rain,144
2014-1-11,74,60,45,64,52,27,100,59,17,30.13,29.96,29.85,10,6,0,21,8,25,0.00,4,Fog,268
2014-1-12,71,55,39,58,43,31,92,57,22,30.17,30.09,29.97,10,10,9,20,9,24,0.03,2,Rain,149
2014-1-13,75,61,47,66,53,26,93,60,26,30.12,29.94,29.87,10,9,3,23,10,30,0.26,5,Rain,232
2014-1-14,70,52,34,45,35,24,93,56,18,30.17,30.11,30.06,10,10,10,16,5,20,0.00,0,,241
2014-1-15,59,48,36,36,26,18,71,46,21,30.39,30.27,30.18,10,10,10,23,10,31,0.00,0,,323
2014-1-16,68,51,34,48,40,30,93,64,34,30.22,30.14,30.08,10,10,2,20,7,25,0.00,0,,213
2014-1-17,63,50,36,45,28,19,93,56,19,30.32,30.25,30.16,10,10,10,17,7,25,0.00,0,,329
2014-1-18,64,49,34,48,38,26,93,65,37,30.29,30.21,30.14,10,10,6,17,7,23,0.00,1,,170
2014-1-19,68,54,39,54,43,27,100,62,24,30.30,30.18,30.14,10,4,0,13,5,15,0.00,1,Fog,288
2014-1-20,76,56,36,59,49,36,100,72,43,30.14,30.04,29.93,10,4,0,20,7,26,0.00,1,Fog,207
2014-1-21,63,50,36,57,33,17,100,59,17,30.27,30.15,30.01,10,7,0,28,12,35,0.00,2,Fog,328
2014-1-22,64,47,30,49,37,25,89,63,36,30.25,30.17,30.11,10,10,10,14,6,18,0.00,0,,135
2014-1-23,61,48,34,50,40,30,93,77,61,30.58,30.35,30.11,10,8,2,31,14,37,0.02,7,Rain-Snow,43
2014-1-24,34,30,25,30,26,21,92,84,75,30.65,30.56,30.38,10,7,2,28,10,35,0.09,7,Rain-Snow,16
2014-1-25,59,43,26,42,34,24,92,70,47,30.36,30.18,30.06,10,10,7,16,5,28,0.00,0,,236
2014-1-26,68,55,41,54,48,41,96,72,48,30.04,29.90,29.81,10,9,6,20,7,25,0.00,2,,187
2014-1-27,72,59,46,59,49,21,100,69,37,30.14,29.92,29.80,10,5,0,25,10,32,0.00,7,Fog,41
2014-1-28,46,37,28,25,21,13,78,55,31,30.43,30.31,30.14,10,9,2,25,13,32,0.03,7,Rain,13
2014-1-29,41,33,25,20,16,12,75,53,30,30.53,30.42,30.35,10,10,10,10,7,14,0.00,0,,49
2014-1-30,58,41,24,50,34,17,81,66,51,30.32,30.16,30.02,10,10,10,18,12,25,0.00,4,,126
2014-1-31,69,61,52,54,52,50,93,76,59,30.05,29.99,29.94,10,10,9,23,14,28,0.00,6,,137